sensor_id;sensor_type;location;lat;lon;timestamp;pressure;altitude;pressure_sealevel;temperature;humidity
50103;BME280;35993;52.604;10.078;2022-12-18T00:01:24;102605.75;;;-7.83;96.16
50103;BME280;35993;52.604;10.078;2022-12-18T00:03:51;102608.22;;;-7.79;95.97
50103;BME280;35993;52.604;10.078;2022-12-18T00:06:17;102605.81;;;-7.85;95.63
50103;BME280;35993;52.604;10.078;2022-12-18T00:08:44;102607.66;;;-7.88;95.84
50103;BME280;35993;52.604;10.078;2022-12-18T00:11:15;102605.34;;;-7.98;95.71
50103;BME280;35993;52.604;10.078;2022-12-18T00:13:41;102608.22;;;-8.05;96.66
50103;BME280;35993;52.604;10.078;2022-12-18T00:16:13;102601.78;;;-7.97;97.18
50103;BME280;35993;52.604;10.078;2022-12-18T00:18:39;102608.81;;;-7.97;96.97
50103;BME280;35993;52.604;10.078;2022-12-18T00:21:07;102615.19;;;-8.04;96.85
50103;BME280;35993;52.604;10.078;2022-12-18T00:23:34;102616.06;;;-8.04;96.16
50103;BME280;35993;52.604;10.078;2022-12-18T00:26:05;102620.72;;;-8.12;95.93
50103;BME280;35993;52.604;10.078;2022-12-18T00:28:32;102614.00;;;-8.23;95.18
50103;BME280;35993;52.604;10.078;2022-12-18T00:31:08;102603.66;;;-8.29;95.45
50103;BME280;35993;52.604;10.078;2022-12-18T00:33:34;102611.53;;;-8.27;95.79
50103;BME280;35993;52.604;10.078;2022-12-18T00:36:11;102608.44;;;-8.13;96.09
50103;BME280;35993;52.604;10.078;2022-12-18T00:38:40;102612.72;;;-8.09;95.83
50103;BME280;35993;52.604;10.078;2022-12-18T00:41:07;102614.34;;;-8.05;95.66
50103;BME280;35993;52.604;10.078;2022-12-18T00:43:35;102612.75;;;-8.11;94.91
50103;BME280;35993;52.604;10.078;2022-12-18T00:46:01;102616.47;;;-8.16;94.71
50103;BME280;35993;52.604;10.078;2022-12-18T00:48:27;102619.88;;;-8.13;94.96
50103;BME280;35993;52.604;10.078;2022-12-18T00:50:52;102626.81;;;-8.10;95.60
50103;BME280;35993;52.604;10.078;2022-12-18T00:53:19;102625.25;;;-8.17;94.98
50103;BME280;35993;52.604;10.078;2022-12-18T00:55:46;102630.97;;;-8.31;94.37
50103;BME280;35993;52.604;10.078;2022-12-18T00:58:13;102634.72;;;-8.40;94.38
50103;BME280;35993;52.604;10.078;2022-12-18T01:00:40;102626.66;;;-8.34;94.55
50103;BME280;35993;52.604;10.078;2022-12-18T01:03:13;102630.06;;;-8.30;94.68
50103;BME280;35993;52.604;10.078;2022-12-18T01:05:39;102625.22;;;-8.44;94.48
50103;BME280;35993;52.604;10.078;2022-12-18T01:08:05;102632.41;;;-8.49;94.61
50103;BME280;35993;52.604;10.078;2022-12-18T01:10:32;102632.56;;;-8.54;94.65
50103;BME280;35993;52.604;10.078;2022-12-18T01:12:58;102630.91;;;-8.58;95.38
50103;BME280;35993;52.604;10.078;2022-12-18T01:15:26;102631.97;;;-8.64;95.40
50103;BME280;35993;52.604;10.078;2022-12-18T01:17:53;102630.00;;;-8.57;95.46
50103;BME280;35993;52.604;10.078;2022-12-18T01:20:19;102641.84;;;-8.42;95.99
50103;BME280;35993;52.604;10.078;2022-12-18T01:22:47;102637.69;;;-8.49;95.41
50103;BME280;35993;52.604;10.078;2022-12-18T01:25:14;102635.22;;;-8.56;95.41
50103;BME280;35993;52.604;10.078;2022-12-18T01:27:39;102633.75;;;-8.64;94.55
50103;BME280;35993;52.604;10.078;2022-12-18T01:30:06;102632.19;;;-8.71;94.57
50103;BME280;35993;52.604;10.078;2022-12-18T01:32:35;102630.28;;;-8.66;95.10
50103;BME280;35993;52.604;10.078;2022-12-18T01:35:01;102630.25;;;-8.65;94.89
50103;BME280;35993;52.604;10.078;2022-12-18T01:37:27;102628.97;;;-8.81;95.28
50103;BME280;35993;52.604;10.078;2022-12-18T01:39:57;102628.19;;;-8.85;95.16
50103;BME280;35993;52.604;10.078;2022-12-18T01:42:22;102638.69;;;-8.83;95.43
50103;BME280;35993;52.604;10.078;2022-12-18T01:47:50;102638.25;;;-8.68;95.56
50103;BME280;35993;52.604;10.078;2022-12-18T01:53:17;102644.81;;;-8.53;95.00
50103;BME280;35993;52.604;10.078;2022-12-18T01:55:52;102646.41;;;-8.47;94.53
50103;BME280;35993;52.604;10.078;2022-12-18T01:58:24;102642.94;;;-8.49;94.66
50103;BME280;35993;52.604;10.078;2022-12-18T02:00:54;102639.28;;;-8.74;93.18
50103;BME280;35993;52.604;10.078;2022-12-18T02:03:20;102650.91;;;-8.82;93.17
50103;BME280;35993;52.604;10.078;2022-12-18T02:05:51;102655.38;;;-8.84;93.53
50103;BME280;35993;52.604;10.078;2022-12-18T02:08:30;102664.97;;;-8.82;94.32
50103;BME280;35993;52.604;10.078;2022-12-18T02:17:02;102659.13;;;-8.62;93.90
50103;BME280;35993;52.604;10.078;2022-12-18T02:20:05;102655.78;;;-8.67;93.77
50103;BME280;35993;52.604;10.078;2022-12-18T02:28:11;102648.91;;;-8.73;92.88
50103;BME280;35993;52.604;10.078;2022-12-18T02:30:39;102652.75;;;-8.84;92.94
50103;BME280;35993;52.604;10.078;2022-12-18T02:33:07;102653.75;;;-8.90;92.69
50103;BME280;35993;52.604;10.078;2022-12-18T02:35:35;102658.22;;;-8.92;93.84
50103;BME280;35993;52.604;10.078;2022-12-18T02:38:03;102647.09;;;-9.02;93.12
50103;BME280;35993;52.604;10.078;2022-12-18T02:40:34;102652.44;;;-9.05;94.00
50103;BME280;35993;52.604;10.078;2022-12-18T02:43:11;102655.31;;;-9.14;93.97
50103;BME280;35993;52.604;10.078;2022-12-18T02:45:53;102652.88;;;-9.20;94.15
50103;BME280;35993;52.604;10.078;2022-12-18T02:48:30;102645.03;;;-9.24;94.78
50103;BME280;35993;52.604;10.078;2022-12-18T02:51:07;102653.81;;;-9.25;95.43
50103;BME280;35993;52.604;10.078;2022-12-18T02:53:42;102650.91;;;-9.14;95.87
50103;BME280;35993;52.604;10.078;2022-12-18T02:56:19;102649.97;;;-9.11;95.09
50103;BME280;35993;52.604;10.078;2022-12-18T02:58:57;102639.66;;;-9.19;94.70
50103;BME280;35993;52.604;10.078;2022-12-18T03:01:52;102638.19;;;-9.29;94.25
50103;BME280;35993;52.604;10.078;2022-12-18T03:04:28;102637.28;;;-9.28;94.68
50103;BME280;35993;52.604;10.078;2022-12-18T03:06:58;102641.75;;;-9.32;94.33
50103;BME280;35993;52.604;10.078;2022-12-18T03:09:37;102642.72;;;-9.36;94.74
50103;BME280;35993;52.604;10.078;2022-12-18T03:12:20;102636.69;;;-9.40;94.24
50103;BME280;35993;52.604;10.078;2022-12-18T03:14:55;102646.03;;;-9.28;94.60
50103;BME280;35993;52.604;10.078;2022-12-18T03:17:25;102640.84;;;-9.31;93.83
50103;BME280;35993;52.604;10.078;2022-12-18T03:19:52;102637.59;;;-9.41;94.14
50103;BME280;35993;52.604;10.078;2022-12-18T03:22:23;102637.75;;;-9.47;94.11
50103;BME280;35993;52.604;10.078;2022-12-18T03:24:53;102639.44;;;-9.44;94.62
50103;BME280;35993;52.604;10.078;2022-12-18T03:27:22;102641.88;;;-9.36;94.57
50103;BME280;35993;52.604;10.078;2022-12-18T03:30:03;102635.44;;;-9.26;94.89
50103;BME280;35993;52.604;10.078;2022-12-18T03:32:42;102649.50;;;-9.27;94.04
50103;BME280;35993;52.604;10.078;2022-12-18T03:35:11;102642.41;;;-9.24;93.46
50103;BME280;35993;52.604;10.078;2022-12-18T03:37:39;102644.03;;;-9.18;92.75
50103;BME280;35993;52.604;10.078;2022-12-18T03:40:07;102633.25;;;-9.09;93.18
50103;BME280;35993;52.604;10.078;2022-12-18T03:42:58;102641.09;;;-9.07;93.66
50103;BME280;35993;52.604;10.078;2022-12-18T03:45:33;102633.78;;;-9.29;92.54
50103;BME280;35993;52.604;10.078;2022-12-18T03:50:57;102648.03;;;-9.38;93.66
50103;BME280;35993;52.604;10.078;2022-12-18T03:53:49;102640.13;;;-9.38;94.16
50103;BME280;35993;52.604;10.078;2022-12-18T03:56:24;102644.78;;;-9.47;94.40
50103;BME280;35993;52.604;10.078;2022-12-18T03:58:52;102647.63;;;-9.55;94.75
50103;BME280;35993;52.604;10.078;2022-12-18T04:01:31;102643.28;;;-9.58;94.97
50103;BME280;35993;52.604;10.078;2022-12-18T04:04:00;102646.59;;;-9.49;95.27
50103;BME280;35993;52.604;10.078;2022-12-18T04:06:29;102642.16;;;-9.47;95.87
50103;BME280;35993;52.604;10.078;2022-12-18T04:08:57;102649.00;;;-9.42;95.49
50103;BME280;35993;52.604;10.078;2022-12-18T04:11:25;102643.75;;;-9.42;95.98
50103;BME280;35993;52.604;10.078;2022-12-18T04:13:55;102641.97;;;-9.41;96.19
50103;BME280;35993;52.604;10.078;2022-12-18T04:16:22;102645.53;;;-9.42;95.98
50103;BME280;35993;52.604;10.078;2022-12-18T04:18:51;102652.47;;;-9.40;95.12
50103;BME280;35993;52.604;10.078;2022-12-18T04:21:18;102649.84;;;-9.40;94.64
50103;BME280;35993;52.604;10.078;2022-12-18T04:23:45;102652.19;;;-9.29;94.85
50103;BME280;35993;52.604;10.078;2022-12-18T04:26:12;102659.06;;;-9.23;94.21
50103;BME280;35993;52.604;10.078;2022-12-18T04:28:58;102652.88;;;-9.22;93.88
50103;BME280;35993;52.604;10.078;2022-12-18T04:31:23;102660.97;;;-9.30;93.89
50103;BME280;35993;52.604;10.078;2022-12-18T04:34:10;102660.06;;;-9.29;94.01
50103;BME280;35993;52.604;10.078;2022-12-18T04:36:41;102651.13;;;-9.22;93.96
50103;BME280;35993;52.604;10.078;2022-12-18T04:39:07;102653.88;;;-9.26;93.47
50103;BME280;35993;52.604;10.078;2022-12-18T04:41:33;102655.91;;;-9.38;93.40
50103;BME280;35993;52.604;10.078;2022-12-18T04:43:59;102646.59;;;-9.49;92.66
50103;BME280;35993;52.604;10.078;2022-12-18T04:46:24;102636.09;;;-9.51;93.85
50103;BME280;35993;52.604;10.078;2022-12-18T04:48:50;102637.94;;;-9.55;94.06
50103;BME280;35993;52.604;10.078;2022-12-18T04:51:16;102632.78;;;-9.59;94.19
50103;BME280;35993;52.604;10.078;2022-12-18T04:53:41;102618.78;;;-9.60;94.48
50103;BME280;35993;52.604;10.078;2022-12-18T04:56:12;102618.88;;;-9.63;94.69
50103;BME280;35993;52.604;10.078;2022-12-18T04:58:40;102630.31;;;-9.64;94.98
50103;BME280;35993;52.604;10.078;2022-12-18T05:01:06;102630.09;;;-9.56;94.94
50103;BME280;35993;52.604;10.078;2022-12-18T05:03:33;102630.91;;;-9.52;94.86
50103;BME280;35993;52.604;10.078;2022-12-18T05:05:59;102635.22;;;-9.50;95.66
50103;BME280;35993;52.604;10.078;2022-12-18T05:08:25;102635.06;;;-9.45;95.72
50103;BME280;35993;52.604;10.078;2022-12-18T05:10:59;102628.22;;;-9.51;95.50
50103;BME280;35993;52.604;10.078;2022-12-18T05:13:25;102630.97;;;-9.56;95.69
50103;BME280;35993;52.604;10.078;2022-12-18T05:15:52;102638.75;;;-9.51;95.60
50103;BME280;35993;52.604;10.078;2022-12-18T05:18:18;102633.13;;;-9.37;95.42
50103;BME280;35993;52.604;10.078;2022-12-18T05:20:43;102638.25;;;-9.32;95.06
50103;BME280;35993;52.604;10.078;2022-12-18T05:23:09;102648.75;;;-9.31;94.46
50103;BME280;35993;52.604;10.078;2022-12-18T05:25:35;102645.34;;;-9.34;94.36
50103;BME280;35993;52.604;10.078;2022-12-18T05:28:00;102649.88;;;-9.41;93.92
50103;BME280;35993;52.604;10.078;2022-12-18T05:30:26;102652.59;;;-9.44;94.07
50103;BME280;35993;52.604;10.078;2022-12-18T05:32:53;102667.16;;;-9.31;94.34
50103;BME280;35993;52.604;10.078;2022-12-18T05:35:18;102668.00;;;-9.30;93.79
50103;BME280;35993;52.604;10.078;2022-12-18T05:37:44;102682.97;;;-9.32;93.14
50103;BME280;35993;52.604;10.078;2022-12-18T05:40:33;102674.97;;;-9.28;93.66
50103;BME280;35993;52.604;10.078;2022-12-18T05:42:59;102681.06;;;-9.27;93.85
50103;BME280;35993;52.604;10.078;2022-12-18T05:45:24;102681.94;;;-9.27;93.80
50103;BME280;35993;52.604;10.078;2022-12-18T05:47:50;102690.84;;;-9.32;94.33
50103;BME280;35993;52.604;10.078;2022-12-18T05:50:15;102698.78;;;-9.34;94.41
50103;BME280;35993;52.604;10.078;2022-12-18T05:53:02;102695.41;;;-9.39;95.24
50103;BME280;35993;52.604;10.078;2022-12-18T05:55:28;102703.09;;;-9.31;95.78
50103;BME280;35993;52.604;10.078;2022-12-18T05:57:57;102703.16;;;-9.33;96.31
50103;BME280;35993;52.604;10.078;2022-12-18T06:00:38;102701.19;;;-9.25;96.15
50103;BME280;35993;52.604;10.078;2022-12-18T06:03:08;102704.59;;;-9.21;96.56
50103;BME280;35993;52.604;10.078;2022-12-18T06:06:03;102705.50;;;-9.22;96.42
50103;BME280;35993;52.604;10.078;2022-12-18T06:08:28;102709.91;;;-9.23;96.28
50103;BME280;35993;52.604;10.078;2022-12-18T06:10:54;102708.16;;;-9.24;96.88
50103;BME280;35993;52.604;10.078;2022-12-18T06:13:20;102705.63;;;-9.27;97.48
50103;BME280;35993;52.604;10.078;2022-12-18T06:15:46;102711.69;;;-9.25;97.69
50103;BME280;35993;52.604;10.078;2022-12-18T06:18:12;102705.69;;;-9.28;97.95
50103;BME280;35993;52.604;10.078;2022-12-18T06:20:43;102708.31;;;-9.28;98.22
50103;BME280;35993;52.604;10.078;2022-12-18T06:23:09;102707.47;;;-9.30;98.01
50103;BME280;35993;52.604;10.078;2022-12-18T06:25:37;102703.81;;;-9.25;97.66
50103;BME280;35993;52.604;10.078;2022-12-18T06:28:22;102703.53;;;-9.14;98.33
50103;BME280;35993;52.604;10.078;2022-12-18T06:30:48;102705.19;;;-9.10;98.30
50103;BME280;35993;52.604;10.078;2022-12-18T06:33:15;102709.41;;;-9.04;98.95
50103;BME280;35993;52.604;10.078;2022-12-18T06:35:41;102716.25;;;-8.97;99.20
50103;BME280;35993;52.604;10.078;2022-12-18T06:38:41;102717.25;;;-9.01;98.46
50103;BME280;35993;52.604;10.078;2022-12-18T06:41:14;102719.03;;;-9.03;98.32
50103;BME280;35993;52.604;10.078;2022-12-18T06:43:40;102712.91;;;-9.03;98.58
50103;BME280;35993;52.604;10.078;2022-12-18T06:46:06;102725.28;;;-9.07;98.68
50103;BME280;35993;52.604;10.078;2022-12-18T06:48:33;102722.56;;;-9.02;99.00
50103;BME280;35993;52.604;10.078;2022-12-18T06:50:58;102712.09;;;-9.06;98.37
50103;BME280;35993;52.604;10.078;2022-12-18T06:53:25;102711.28;;;-9.08;98.65
50103;BME280;35993;52.604;10.078;2022-12-18T06:55:50;102712.19;;;-9.09;99.00
50103;BME280;35993;52.604;10.078;2022-12-18T06:58:16;102708.47;;;-9.01;99.26
50103;BME280;35993;52.604;10.078;2022-12-18T07:00:42;102704.81;;;-8.96;99.83
50103;BME280;35993;52.604;10.078;2022-12-18T07:03:08;102708.16;;;-8.89;99.26
50103;BME280;35993;52.604;10.078;2022-12-18T07:05:34;102709.09;;;-8.92;99.30
50103;BME280;35993;52.604;10.078;2022-12-18T07:07:59;102707.66;;;-9.03;98.83
50103;BME280;35993;52.604;10.078;2022-12-18T07:10:26;102717.41;;;-9.07;98.87
50103;BME280;35993;52.604;10.078;2022-12-18T07:12:51;102726.31;;;-9.13;98.43
50103;BME280;35993;52.604;10.078;2022-12-18T07:15:17;102735.88;;;-9.09;98.75
50103;BME280;35993;52.604;10.078;2022-12-18T07:17:42;102741.22;;;-9.13;98.65
50103;BME280;35993;52.604;10.078;2022-12-18T07:20:09;102742.22;;;-9.17;98.19
50103;BME280;35993;52.604;10.078;2022-12-18T07:22:34;102750.06;;;-9.16;98.39
50103;BME280;35993;52.604;10.078;2022-12-18T07:25:00;102752.50;;;-9.08;98.34
50103;BME280;35993;52.604;10.078;2022-12-18T07:27:26;102753.28;;;-9.04;98.61
50103;BME280;35993;52.604;10.078;2022-12-18T07:29:51;102759.75;;;-9.16;98.34
50103;BME280;35993;52.604;10.078;2022-12-18T07:32:17;102765.06;;;-9.19;98.55
50103;BME280;35993;52.604;10.078;2022-12-18T07:34:43;102764.34;;;-9.26;97.86
50103;BME280;35993;52.604;10.078;2022-12-18T07:37:09;102759.22;;;-9.31;98.72
50103;BME280;35993;52.604;10.078;2022-12-18T07:39:35;102766.94;;;-9.25;98.47
50103;BME280;35993;52.604;10.078;2022-12-18T07:42:00;102772.91;;;-9.16;98.26
50103;BME280;35993;52.604;10.078;2022-12-18T07:45:07;102773.56;;;-9.08;98.64
50103;BME280;35993;52.604;10.078;2022-12-18T07:47:35;102775.59;;;-9.19;97.55
50103;BME280;35993;52.604;10.078;2022-12-18T07:50:03;102781.69;;;-9.17;97.95
50103;BME280;35993;52.604;10.078;2022-12-18T07:52:28;102778.22;;;-9.19;97.60
50103;BME280;35993;52.604;10.078;2022-12-18T07:54:54;102785.25;;;-9.20;97.96
50103;BME280;35993;52.604;10.078;2022-12-18T07:57:19;102789.66;;;-9.20;98.09
50103;BME280;35993;52.604;10.078;2022-12-18T07:59:45;102794.75;;;-9.13;97.99
50103;BME280;35993;52.604;10.078;2022-12-18T08:02:11;102786.72;;;-9.08;98.04
50103;BME280;35993;52.604;10.078;2022-12-18T08:04:36;102787.69;;;-9.12;97.72
50103;BME280;35993;52.604;10.078;2022-12-18T08:07:02;102787.75;;;-9.14;97.50
50103;BME280;35993;52.604;10.078;2022-12-18T08:09:28;102786.75;;;-9.10;98.11
50103;BME280;35993;52.604;10.078;2022-12-18T08:11:55;102784.81;;;-9.03;98.49
50103;BME280;35993;52.604;10.078;2022-12-18T08:14:21;102772.75;;;-9.12;98.23
50103;BME280;35993;52.604;10.078;2022-12-18T08:16:46;102772.72;;;-9.09;98.52
50103;BME280;35993;52.604;10.078;2022-12-18T08:19:12;102769.97;;;-9.06;98.55
50103;BME280;35993;52.604;10.078;2022-12-18T08:21:41;102762.88;;;-9.02;98.16
50103;BME280;35993;52.604;10.078;2022-12-18T08:24:29;102760.94;;;-8.95;98.75
50103;BME280;35993;52.604;10.078;2022-12-18T08:26:55;102749.41;;;-8.90;98.71
50103;BME280;35993;52.604;10.078;2022-12-18T08:29:22;102749.47;;;-8.93;98.63
50103;BME280;35993;52.604;10.078;2022-12-18T08:31:48;102744.25;;;-8.94;98.50
50103;BME280;35993;52.604;10.078;2022-12-18T08:34:14;102744.94;;;-8.86;98.92
50103;BME280;35993;52.604;10.078;2022-12-18T08:36:40;102750.88;;;-8.79;99.13
50103;BME280;35993;52.604;10.078;2022-12-18T08:39:05;102744.38;;;-8.66;98.86
50103;BME280;35993;52.604;10.078;2022-12-18T08:41:31;102743.34;;;-8.60;98.96
50103;BME280;35993;52.604;10.078;2022-12-18T08:43:56;102729.19;;;-8.56;98.82
50103;BME280;35993;52.604;10.078;2022-12-18T08:46:42;102733.34;;;-8.47;98.97
50103;BME280;35993;52.604;10.078;2022-12-18T08:49:10;102730.50;;;-8.41;99.07
50103;BME280;35993;52.604;10.078;2022-12-18T08:51:36;102731.13;;;-8.33;99.32
50103;BME280;35993;52.604;10.078;2022-12-18T08:54:02;102725.81;;;-8.31;99.26
50103;BME280;35993;52.604;10.078;2022-12-18T08:56:54;102735.38;;;-8.27;99.67
50103;BME280;35993;52.604;10.078;2022-12-18T08:59:19;102736.06;;;-8.20;99.58
50103;BME280;35993;52.604;10.078;2022-12-18T09:01:46;102738.50;;;-8.14;99.51
50103;BME280;35993;52.604;10.078;2022-12-18T09:04:12;102732.19;;;-8.09;99.72
50103;BME280;35993;52.604;10.078;2022-12-18T09:06:39;102731.22;;;-8.06;100.00
50103;BME280;35993;52.604;10.078;2022-12-18T09:09:05;102731.88;;;-7.98;100.00
50103;BME280;35993;52.604;10.078;2022-12-18T09:11:32;102730.56;;;-7.84;100.00
50103;BME280;35993;52.604;10.078;2022-12-18T09:13:59;102725.25;;;-7.83;100.00
50103;BME280;35993;52.604;10.078;2022-12-18T09:16:25;102722.41;;;-7.77;100.00
50103;BME280;35993;52.604;10.078;2022-12-18T09:18:56;102723.06;;;-7.68;100.00
50103;BME280;35993;52.604;10.078;2022-12-18T09:21:27;102717.53;;;-7.61;100.00
50103;BME280;35993;52.604;10.078;2022-12-18T09:23:54;102721.63;;;-7.52;100.00
50103;BME280;35993;52.604;10.078;2022-12-18T09:26:25;102729.25;;;-7.43;100.00
50103;BME280;35993;52.604;10.078;2022-12-18T09:28:51;102732.56;;;-7.36;100.00
50103;BME280;35993;52.604;10.078;2022-12-18T09:31:18;102725.28;;;-7.29;100.00
50103;BME280;35993;52.604;10.078;2022-12-18T09:33:44;102723.41;;;-7.26;100.00
50103;BME280;35993;52.604;10.078;2022-12-18T09:36:12;102729.41;;;-7.20;100.00
50103;BME280;35993;52.604;10.078;2022-12-18T09:38:38;102721.38;;;-7.17;100.00
50103;BME280;35993;52.604;10.078;2022-12-18T09:44:03;102707.06;;;-7.10;100.00
50103;BME280;35993;52.604;10.078;2022-12-18T09:46:38;102707.75;;;-7.05;100.00
50103;BME280;35993;52.604;10.078;2022-12-18T09:49:12;102712.91;;;-7.00;100.00
50103;BME280;35993;52.604;10.078;2022-12-18T09:51:45;102720.69;;;-6.97;100.00
50103;BME280;35993;52.604;10.078;2022-12-18T09:54:18;102719.56;;;-6.90;100.00
50103;BME280;35993;52.604;10.078;2022-12-18T09:56:45;102730.00;;;-6.87;99.79
50103;BME280;35993;52.604;10.078;2022-12-18T09:59:21;102721.72;;;-6.76;100.00
50103;BME280;35993;52.604;10.078;2022-12-18T10:01:48;102717.22;;;-6.72;99.58
50103;BME280;35993;52.604;10.078;2022-12-18T10:04:14;102724.09;;;-6.68;99.92
50103;BME280;35993;52.604;10.078;2022-12-18T10:09:31;102745.88;;;-6.62;99.57
50103;BME280;35993;52.604;10.078;2022-12-18T10:12:12;102748.28;;;-6.55;100.00
50103;BME280;35993;52.604;10.078;2022-12-18T10:14:50;102762.97;;;-6.47;100.00
50103;BME280;35993;52.604;10.078;2022-12-18T10:20:10;102752.97;;;-6.38;100.00
50103;BME280;35993;52.604;10.078;2022-12-18T10:22:53;102751.00;;;-6.33;100.00
50103;BME280;35993;52.604;10.078;2022-12-18T10:26:21;102735.06;;;-6.30;99.55
50103;BME280;35993;52.604;10.078;2022-12-18T10:28:40;102743.66;;;-6.25;100.00
50103;BME280;35993;52.604;10.078;2022-12-18T10:31:07;102746.13;;;-6.20;100.00
50103;BME280;35993;52.604;10.078;2022-12-18T10:33:39;102744.06;;;-6.12;100.00
50103;BME280;35993;52.604;10.078;2022-12-18T10:36:15;102748.31;;;-6.08;100.00
50103;BME280;35993;52.604;10.078;2022-12-18T10:38:41;102750.78;;;-6.03;100.00
50103;BME280;35993;52.604;10.078;2022-12-18T10:43:44;102739.16;;;-5.99;100.00
50103;BME280;35993;52.604;10.078;2022-12-18T10:46:28;102745.19;;;-5.96;100.00
50103;BME280;35993;52.604;10.078;2022-12-18T10:48:55;102730.84;;;-5.90;100.00
50103;BME280;35993;52.604;10.078;2022-12-18T10:51:32;102736.03;;;-5.87;100.00
50103;BME280;35993;52.604;10.078;2022-12-18T10:56:42;102726.75;;;-5.75;100.00
50103;BME280;35993;52.604;10.078;2022-12-18T10:59:10;102720.41;;;-5.71;99.50
50103;BME280;35993;52.604;10.078;2022-12-18T11:01:54;102714.97;;;-5.68;100.00
50103;BME280;35993;52.604;10.078;2022-12-18T11:04:29;102718.28;;;-5.63;99.72
50103;BME280;35993;52.604;10.078;2022-12-18T11:07:01;102720.81;;;-5.60;99.60
50103;BME280;35993;52.604;10.078;2022-12-18T11:09:35;102728.53;;;-5.53;99.94
50103;BME280;35993;52.604;10.078;2022-12-18T11:12:04;102719.59;;;-5.51;99.70
50103;BME280;35993;52.604;10.078;2022-12-18T11:14:52;102708.81;;;-5.46;99.70
50103;BME280;35993;52.604;10.078;2022-12-18T11:17:37;102694.66;;;-5.45;99.70
50103;BME280;35993;52.604;10.078;2022-12-18T11:20:05;102688.50;;;-5.46;99.61
50103;BME280;35993;52.604;10.078;2022-12-18T11:22:36;102697.38;;;-5.47;99.65
50103;BME280;35993;52.604;10.078;2022-12-18T11:25:18;102703.66;;;-5.49;99.96
50103;BME280;35993;52.604;10.078;2022-12-18T11:30:48;102710.53;;;-5.45;99.81
50103;BME280;35993;52.604;10.078;2022-12-18T11:33:20;102707.72;;;-5.40;100.00
50103;BME280;35993;52.604;10.078;2022-12-18T11:36:08;102713.00;;;-5.40;99.64
50103;BME280;35993;52.604;10.078;2022-12-18T11:38:40;102713.84;;;-5.40;99.55
50103;BME280;35993;52.604;10.078;2022-12-18T11:41:34;102702.41;;;-5.40;99.41
50103;BME280;35993;52.604;10.078;2022-12-18T11:44:28;102696.91;;;-5.36;99.83
50103;BME280;35993;52.604;10.078;2022-12-18T11:47:04;102696.72;;;-5.31;99.95
50103;BME280;35993;52.604;10.078;2022-12-18T11:49:34;102689.38;;;-5.24;100.00
50103;BME280;35993;52.604;10.078;2022-12-18T11:52:10;102688.34;;;-5.20;100.00
50103;BME280;35993;52.604;10.078;2022-12-18T11:54:40;102676.09;;;-5.23;100.00
50103;BME280;35993;52.604;10.078;2022-12-18T12:03:20;102671.31;;;-5.15;100.00
50103;BME280;35993;52.604;10.078;2022-12-18T12:06:15;102662.53;;;-5.15;100.00
50103;BME280;35993;52.604;10.078;2022-12-18T12:08:52;102658.66;;;-5.08;100.00
50103;BME280;35993;52.604;10.078;2022-12-18T12:19:56;102640.47;;;-4.76;100.00
50103;BME280;35993;52.604;10.078;2022-12-18T12:22:38;102629.75;;;-4.73;100.00
50103;BME280;35993;52.604;10.078;2022-12-18T12:25:15;102626.88;;;-4.68;100.00
50103;BME280;35993;52.604;10.078;2022-12-18T12:30:26;102613.28;;;-4.61;100.00
50103;BME280;35993;52.604;10.078;2022-12-18T12:38:29;102584.34;;;-4.46;100.00
50103;BME280;35993;52.604;10.078;2022-12-18T12:41:02;102594.88;;;-4.45;100.00
50103;BME280;35993;52.604;10.078;2022-12-18T12:43:47;102594.00;;;-4.45;99.91
50103;BME280;35993;52.604;10.078;2022-12-18T12:46:17;102594.00;;;-4.45;99.99
50103;BME280;35993;52.604;10.078;2022-12-18T12:49:05;102593.16;;;-4.46;100.00
50103;BME280;35993;52.604;10.078;2022-12-18T12:51:37;102584.56;;;-4.51;100.00
50103;BME280;35993;52.604;10.078;2022-12-18T12:54:06;102572.16;;;-4.50;100.00
50103;BME280;35993;52.604;10.078;2022-12-18T12:57:03;102569.66;;;-4.53;100.00
50103;BME280;35993;52.604;10.078;2022-12-18T13:02:23;102573.03;;;-4.50;100.00
50103;BME280;35993;52.604;10.078;2022-12-18T13:05:19;102569.44;;;-4.49;100.00
50103;BME280;35993;52.604;10.078;2022-12-18T13:10:28;102565.06;;;-4.50;100.00
50103;BME280;35993;52.604;10.078;2022-12-18T13:13:00;102565.00;;;-4.48;100.00
50103;BME280;35993;52.604;10.078;2022-12-18T13:18:11;102557.03;;;-4.48;100.00
50103;BME280;35993;52.604;10.078;2022-12-18T13:25:52;102560.63;;;-4.49;100.00
50103;BME280;35993;52.604;10.078;2022-12-18T13:31:00;102559.53;;;-4.45;100.00
50103;BME280;35993;52.604;10.078;2022-12-18T13:38:37;102566.78;;;-4.49;100.00
50103;BME280;35993;52.604;10.078;2022-12-18T13:46:45;102566.06;;;-4.52;100.00
50103;BME280;35993;52.604;10.078;2022-12-18T13:51:49;102559.78;;;-4.50;100.00
50103;BME280;35993;52.604;10.078;2022-12-18T13:54:32;102561.41;;;-4.47;100.00
50103;BME280;35993;52.604;10.078;2022-12-18T13:56:59;102562.19;;;-4.45;100.00
50103;BME280;35993;52.604;10.078;2022-12-18T13:59:36;102548.25;;;-4.49;100.00
50103;BME280;35993;52.604;10.078;2022-12-18T14:02:17;102549.16;;;-4.50;100.00
50103;BME280;35993;52.604;10.078;2022-12-18T14:05:04;102544.59;;;-4.46;100.00
50103;BME280;35993;52.604;10.078;2022-12-18T14:07:30;102548.16;;;-4.47;100.00
50103;BME280;35993;52.604;10.078;2022-12-18T14:10:23;102548.16;;;-4.47;100.00
50103;BME280;35993;52.604;10.078;2022-12-18T14:12:50;102538.41;;;-4.47;100.00
50103;BME280;35993;52.604;10.078;2022-12-18T14:17:52;102524.50;;;-4.52;100.00
50103;BME280;35993;52.604;10.078;2022-12-18T14:20:19;102528.16;;;-4.54;100.00
50103;BME280;35993;52.604;10.078;2022-12-18T14:22:47;102530.81;;;-4.54;100.00
50103;BME280;35993;52.604;10.078;2022-12-18T14:25:20;102531.75;;;-4.55;100.00
50103;BME280;35993;52.604;10.078;2022-12-18T14:27:52;102531.69;;;-4.54;100.00
50103;BME280;35993;52.604;10.078;2022-12-18T14:30:32;102523.09;;;-4.59;100.00